Rochester, Texas
Current Conditions -  °F | °C
As of 12:58 AM on Wednesday 22 Oct 2014 (Local Time) from KDYS Reporting Station
Few Clouds Few Clouds  
Wind Chill: 66°   Ceiling: Unl
Heat Index: 66°   Visibility: 10mi
Dew Point: 51°   Wind: 12mph
Humidity: 58%   Direction: 140°SE
Pressure: 30.06"   Gusts: NA
Location:  33.32°N, 99.86°W
Report Text: KDYS 220558Z AUTO 14010KT 10SM FEW240 19/10 A3006 RMK AO2 SLP142 T01880103 10235 20172 402720119 50001
Loading
Personal Weather Stations






























Interactive Weather Map
Tropical Storm Tracking
New forecast layout! Learn more

10-Day Weather Forecast

Advertisements
Track Severe Weather on mobile